sensor_id;sensor_type;location;lat;lon;timestamp;temperature;humidity
20481;DHT22;10399;50.754;3.366;2023-04-24T00:01:57;11.20;99.90
20481;DHT22;10399;50.754;3.366;2023-04-24T00:04:25;11.20;99.90
20481;DHT22;10399;50.754;3.366;2023-04-24T00:06:53;11.20;99.90
20481;DHT22;10399;50.754;3.366;2023-04-24T00:09:24;11.20;99.90
20481;DHT22;10399;50.754;3.366;2023-04-24T00:11:51;11.10;99.90
20481;DHT22;10399;50.754;3.366;2023-04-24T00:14:18;11.00;99.90
20481;DHT22;10399;50.754;3.366;2023-04-24T00:16:45;11.10;99.90
20481;DHT22;10399;50.754;3.366;2023-04-24T00:19:12;10.90;99.90
20481;DHT22;10399;50.754;3.366;2023-04-24T00:21:39;10.90;99.90
20481;DHT22;10399;50.754;3.366;2023-04-24T00:24:07;10.90;99.90
20481;DHT22;10399;50.754;3.366;2023-04-24T00:26:35;10.80;99.90
20481;DHT22;10399;50.754;3.366;2023-04-24T00:29:02;10.80;99.90
20481;DHT22;10399;50.754;3.366;2023-04-24T00:31:29;10.80;99.90
20481;DHT22;10399;50.754;3.366;2023-04-24T00:33:57;10.90;99.90
20481;DHT22;10399;50.754;3.366;2023-04-24T00:36:24;10.80;99.90
20481;DHT22;10399;50.754;3.366;2023-04-24T00:38:51;10.70;99.90
20481;DHT22;10399;50.754;3.366;2023-04-24T00:41:18;10.70;99.90
20481;DHT22;10399;50.754;3.366;2023-04-24T00:43:46;10.70;99.90
20481;DHT22;10399;50.754;3.366;2023-04-24T00:46:13;10.80;99.90
20481;DHT22;10399;50.754;3.366;2023-04-24T00:48:40;10.80;99.90
20481;DHT22;10399;50.754;3.366;2023-04-24T00:51:07;10.80;99.90
20481;DHT22;10399;50.754;3.366;2023-04-24T00:53:34;10.90;99.90
20481;DHT22;10399;50.754;3.366;2023-04-24T00:56:02;10.90;99.90
20481;DHT22;10399;50.754;3.366;2023-04-24T00:58:29;10.80;99.90
20481;DHT22;10399;50.754;3.366;2023-04-24T01:00:58;10.80;99.90
20481;DHT22;10399;50.754;3.366;2023-04-24T01:03:30;10.90;99.90
20481;DHT22;10399;50.754;3.366;2023-04-24T01:05:59;10.90;99.90
20481;DHT22;10399;50.754;3.366;2023-04-24T01:08:27;10.90;99.90
20481;DHT22;10399;50.754;3.366;2023-04-24T01:10:55;10.80;99.90
20481;DHT22;10399;50.754;3.366;2023-04-24T01:13:24;10.80;99.90
20481;DHT22;10399;50.754;3.366;2023-04-24T01:15:50;10.80;99.90
20481;DHT22;10399;50.754;3.366;2023-04-24T01:18:17;10.70;99.90
20481;DHT22;10399;50.754;3.366;2023-04-24T01:20:45;10.80;99.90
20481;DHT22;10399;50.754;3.366;2023-04-24T01:23:13;10.70;99.90
20481;DHT22;10399;50.754;3.366;2023-04-24T01:25:40;10.60;99.90
20481;DHT22;10399;50.754;3.366;2023-04-24T01:28:07;10.50;99.90
20481;DHT22;10399;50.754;3.366;2023-04-24T01:30:35;10.40;99.90
20481;DHT22;10399;50.754;3.366;2023-04-24T01:33:02;10.40;99.90
20481;DHT22;10399;50.754;3.366;2023-04-24T01:35:29;10.40;99.90
20481;DHT22;10399;50.754;3.366;2023-04-24T01:37:56;10.50;99.90
20481;DHT22;10399;50.754;3.366;2023-04-24T01:40:23;10.50;99.90
20481;DHT22;10399;50.754;3.366;2023-04-24T01:42:50;10.60;99.90
20481;DHT22;10399;50.754;3.366;2023-04-24T01:45:17;10.50;99.90
20481;DHT22;10399;50.754;3.366;2023-04-24T01:47:45;10.50;99.90
20481;DHT22;10399;50.754;3.366;2023-04-24T01:50:13;10.30;99.90
20481;DHT22;10399;50.754;3.366;2023-04-24T01:52:40;10.30;99.90
20481;DHT22;10399;50.754;3.366;2023-04-24T01:55:07;10.20;99.90
20481;DHT22;10399;50.754;3.366;2023-04-24T01:57:34;10.20;99.90
20481;DHT22;10399;50.754;3.366;2023-04-24T02:00:02;10.20;99.90
20481;DHT22;10399;50.754;3.366;2023-04-24T02:02:31;10.20;99.90
20481;DHT22;10399;50.754;3.366;2023-04-24T02:04:58;10.20;99.90
20481;DHT22;10399;50.754;3.366;2023-04-24T02:07:25;10.10;99.90
20481;DHT22;10399;50.754;3.366;2023-04-24T02:09:52;10.10;99.90
20481;DHT22;10399;50.754;3.366;2023-04-24T02:12:19;10.10;99.90
20481;DHT22;10399;50.754;3.366;2023-04-24T02:14:46;10.10;99.90
20481;DHT22;10399;50.754;3.366;2023-04-24T02:17:13;10.10;99.90
20481;DHT22;10399;50.754;3.366;2023-04-24T02:19:42;10.00;99.90
20481;DHT22;10399;50.754;3.366;2023-04-24T02:22:09;10.00;99.90
20481;DHT22;10399;50.754;3.366;2023-04-24T02:24:37;10.00;99.90
20481;DHT22;10399;50.754;3.366;2023-04-24T02:27:05;10.00;99.90
20481;DHT22;10399;50.754;3.366;2023-04-24T02:29:32;9.90;99.90
20481;DHT22;10399;50.754;3.366;2023-04-24T02:31:59;9.90;99.90
20481;DHT22;10399;50.754;3.366;2023-04-24T02:34:26;10.00;99.90
20481;DHT22;10399;50.754;3.366;2023-04-24T02:36:53;10.00;99.90
20481;DHT22;10399;50.754;3.366;2023-04-24T02:39:20;10.00;99.90
20481;DHT22;10399;50.754;3.366;2023-04-24T02:41:47;10.00;99.90
20481;DHT22;10399;50.754;3.366;2023-04-24T02:44:15;10.00;99.90
20481;DHT22;10399;50.754;3.366;2023-04-24T02:46:43;9.90;99.90
20481;DHT22;10399;50.754;3.366;2023-04-24T02:49:10;9.90;99.90
20481;DHT22;10399;50.754;3.366;2023-04-24T02:51:38;9.90;99.90
20481;DHT22;10399;50.754;3.366;2023-04-24T02:54:08;9.90;99.90
20481;DHT22;10399;50.754;3.366;2023-04-24T02:56:36;10.00;99.90
20481;DHT22;10399;50.754;3.366;2023-04-24T02:59:03;10.20;99.90
20481;DHT22;10399;50.754;3.366;2023-04-24T03:01:30;10.30;99.90
20481;DHT22;10399;50.754;3.366;2023-04-24T03:03:57;10.20;99.90
20481;DHT22;10399;50.754;3.366;2023-04-24T03:06:25;10.20;99.90
20481;DHT22;10399;50.754;3.366;2023-04-24T03:08:53;10.30;99.90
20481;DHT22;10399;50.754;3.366;2023-04-24T03:11:21;10.20;99.90
20481;DHT22;10399;50.754;3.366;2023-04-24T03:13:48;10.30;99.90
20481;DHT22;10399;50.754;3.366;2023-04-24T03:16:15;10.30;99.90
20481;DHT22;10399;50.754;3.366;2023-04-24T03:18:42;10.40;99.90
20481;DHT22;10399;50.754;3.366;2023-04-24T03:21:09;10.30;99.90
20481;DHT22;10399;50.754;3.366;2023-04-24T03:23:36;10.30;99.90
20481;DHT22;10399;50.754;3.366;2023-04-24T03:26:03;10.20;99.90
20481;DHT22;10399;50.754;3.366;2023-04-24T03:28:30;10.20;99.90
20481;DHT22;10399;50.754;3.366;2023-04-24T03:30:57;10.20;99.90
20481;DHT22;10399;50.754;3.366;2023-04-24T03:33:23;10.20;99.90
20481;DHT22;10399;50.754;3.366;2023-04-24T03:35:51;10.40;99.90
20481;DHT22;10399;50.754;3.366;2023-04-24T03:38:18;10.40;99.90
20481;DHT22;10399;50.754;3.366;2023-04-24T03:40:45;10.40;99.90
20481;DHT22;10399;50.754;3.366;2023-04-24T03:43:11;10.40;99.90
20481;DHT22;10399;50.754;3.366;2023-04-24T03:45:38;10.50;99.90
20481;DHT22;10399;50.754;3.366;2023-04-24T03:48:05;10.50;99.90
20481;DHT22;10399;50.754;3.366;2023-04-24T03:50:32;10.50;99.90
20481;DHT22;10399;50.754;3.366;2023-04-24T03:52:59;10.50;99.90
20481;DHT22;10399;50.754;3.366;2023-04-24T03:55:26;10.50;99.90
20481;DHT22;10399;50.754;3.366;2023-04-24T03:57:53;10.40;99.90
20481;DHT22;10399;50.754;3.366;2023-04-24T04:00:20;10.30;99.90
20481;DHT22;10399;50.754;3.366;2023-04-24T04:02:47;10.20;99.90
20481;DHT22;10399;50.754;3.366;2023-04-24T04:05:14;10.20;99.90
20481;DHT22;10399;50.754;3.366;2023-04-24T04:07:42;10.30;99.90
20481;DHT22;10399;50.754;3.366;2023-04-24T04:10:09;10.30;99.90
20481;DHT22;10399;50.754;3.366;2023-04-24T04:12:36;10.30;99.90
20481;DHT22;10399;50.754;3.366;2023-04-24T04:15:03;10.30;99.90
20481;DHT22;10399;50.754;3.366;2023-04-24T04:17:32;10.40;99.90
20481;DHT22;10399;50.754;3.366;2023-04-24T04:19:59;10.30;99.90
20481;DHT22;10399;50.754;3.366;2023-04-24T04:22:27;10.30;99.90
20481;DHT22;10399;50.754;3.366;2023-04-24T04:24:54;10.10;99.90
20481;DHT22;10399;50.754;3.366;2023-04-24T04:27:21;10.10;99.90
20481;DHT22;10399;50.754;3.366;2023-04-24T04:29:48;10.10;99.90
20481;DHT22;10399;50.754;3.366;2023-04-24T04:32:15;10.00;99.90
20481;DHT22;10399;50.754;3.366;2023-04-24T04:34:42;10.00;99.90
20481;DHT22;10399;50.754;3.366;2023-04-24T04:37:12;10.10;99.90
20481;DHT22;10399;50.754;3.366;2023-04-24T04:39:39;10.00;99.90
20481;DHT22;10399;50.754;3.366;2023-04-24T04:42:06;10.10;99.90
20481;DHT22;10399;50.754;3.366;2023-04-24T04:44:33;10.10;99.90
20481;DHT22;10399;50.754;3.366;2023-04-24T04:47:02;10.10;99.90
20481;DHT22;10399;50.754;3.366;2023-04-24T04:49:32;10.20;99.90
20481;DHT22;10399;50.754;3.366;2023-04-24T04:51:59;10.30;99.90
20481;DHT22;10399;50.754;3.366;2023-04-24T04:54:26;10.20;99.90
20481;DHT22;10399;50.754;3.366;2023-04-24T04:56:53;10.10;99.90
20481;DHT22;10399;50.754;3.366;2023-04-24T04:59:20;9.90;99.90
20481;DHT22;10399;50.754;3.366;2023-04-24T05:01:47;10.00;99.90
20481;DHT22;10399;50.754;3.366;2023-04-24T05:04:14;9.90;99.90
20481;DHT22;10399;50.754;3.366;2023-04-24T05:06:42;10.00;99.90
20481;DHT22;10399;50.754;3.366;2023-04-24T05:09:09;9.80;99.90
20481;DHT22;10399;50.754;3.366;2023-04-24T05:11:36;9.80;99.90
20481;DHT22;10399;50.754;3.366;2023-04-24T05:14:03;9.80;99.90
20481;DHT22;10399;50.754;3.366;2023-04-24T05:16:30;9.80;99.90
20481;DHT22;10399;50.754;3.366;2023-04-24T05:18:57;9.80;99.90
20481;DHT22;10399;50.754;3.366;2023-04-24T05:21:24;9.70;99.90
20481;DHT22;10399;50.754;3.366;2023-04-24T05:23:52;9.80;99.90
20481;DHT22;10399;50.754;3.366;2023-04-24T05:26:19;9.80;99.90
20481;DHT22;10399;50.754;3.366;2023-04-24T05:28:46;9.80;99.90
20481;DHT22;10399;50.754;3.366;2023-04-24T05:31:13;9.90;99.90
20481;DHT22;10399;50.754;3.366;2023-04-24T05:33:40;9.90;99.90
20481;DHT22;10399;50.754;3.366;2023-04-24T05:36:07;9.90;99.90
20481;DHT22;10399;50.754;3.366;2023-04-24T05:38:34;9.80;99.90
20481;DHT22;10399;50.754;3.366;2023-04-24T05:41:01;9.90;99.90
20481;DHT22;10399;50.754;3.366;2023-04-24T05:43:28;10.00;99.90
20481;DHT22;10399;50.754;3.366;2023-04-24T05:45:55;10.00;99.90
20481;DHT22;10399;50.754;3.366;2023-04-24T05:48:22;9.90;99.90
20481;DHT22;10399;50.754;3.366;2023-04-24T05:50:49;9.80;99.90
20481;DHT22;10399;50.754;3.366;2023-04-24T05:53:17;9.90;99.90
20481;DHT22;10399;50.754;3.366;2023-04-24T05:55:45;10.10;99.90
20481;DHT22;10399;50.754;3.366;2023-04-24T05:58:12;10.10;99.90
20481;DHT22;10399;50.754;3.366;2023-04-24T06:00:39;9.80;99.90
20481;DHT22;10399;50.754;3.366;2023-04-24T06:03:09;9.90;99.90
20481;DHT22;10399;50.754;3.366;2023-04-24T06:05:36;10.10;99.90
20481;DHT22;10399;50.754;3.366;2023-04-24T06:08:04;10.10;99.90
20481;DHT22;10399;50.754;3.366;2023-04-24T06:10:31;10.10;99.90
20481;DHT22;10399;50.754;3.366;2023-04-24T06:12:58;10.10;99.90
20481;DHT22;10399;50.754;3.366;2023-04-24T06:15:30;10.10;99.90
20481;DHT22;10399;50.754;3.366;2023-04-24T06:17:57;10.10;99.90
20481;DHT22;10399;50.754;3.366;2023-04-24T06:20:26;10.10;99.90
20481;DHT22;10399;50.754;3.366;2023-04-24T06:22:53;10.30;99.90
20481;DHT22;10399;50.754;3.366;2023-04-24T06:25:21;10.20;99.90
20481;DHT22;10399;50.754;3.366;2023-04-24T06:27:48;10.30;99.90
20481;DHT22;10399;50.754;3.366;2023-04-24T06:30:15;10.20;99.90
20481;DHT22;10399;50.754;3.366;2023-04-24T06:32:42;10.30;99.90
20481;DHT22;10399;50.754;3.366;2023-04-24T06:35:09;10.30;99.90
20481;DHT22;10399;50.754;3.366;2023-04-24T06:37:36;10.30;99.90
20481;DHT22;10399;50.754;3.366;2023-04-24T06:40:03;10.30;99.90
20481;DHT22;10399;50.754;3.366;2023-04-24T06:42:33;10.20;99.90
20481;DHT22;10399;50.754;3.366;2023-04-24T06:45:01;10.20;99.90
20481;DHT22;10399;50.754;3.366;2023-04-24T06:47:29;10.30;99.90
20481;DHT22;10399;50.754;3.366;2023-04-24T06:49:56;10.30;99.90
20481;DHT22;10399;50.754;3.366;2023-04-24T06:52:23;10.40;99.90
20481;DHT22;10399;50.754;3.366;2023-04-24T06:54:50;10.30;99.90
20481;DHT22;10399;50.754;3.366;2023-04-24T06:57:17;10.30;99.90
20481;DHT22;10399;50.754;3.366;2023-04-24T06:59:45;10.30;99.90
20481;DHT22;10399;50.754;3.366;2023-04-24T07:02:13;10.30;99.90
20481;DHT22;10399;50.754;3.366;2023-04-24T07:04:40;10.40;99.90
20481;DHT22;10399;50.754;3.366;2023-04-24T07:07:08;10.40;99.90
20481;DHT22;10399;50.754;3.366;2023-04-24T07:09:40;10.40;99.90
20481;DHT22;10399;50.754;3.366;2023-04-24T07:12:11;10.40;99.90
20481;DHT22;10399;50.754;3.366;2023-04-24T07:14:38;10.60;99.90
20481;DHT22;10399;50.754;3.366;2023-04-24T07:17:06;10.60;99.90
20481;DHT22;10399;50.754;3.366;2023-04-24T07:19:34;10.60;99.90
20481;DHT22;10399;50.754;3.366;2023-04-24T07:22:04;10.50;99.90
20481;DHT22;10399;50.754;3.366;2023-04-24T07:24:31;10.60;99.90
20481;DHT22;10399;50.754;3.366;2023-04-24T07:27:01;10.70;99.90
20481;DHT22;10399;50.754;3.366;2023-04-24T07:29:27;10.80;99.90
20481;DHT22;10399;50.754;3.366;2023-04-24T07:31:54;11.00;99.90
20481;DHT22;10399;50.754;3.366;2023-04-24T07:34:23;11.00;99.90
20481;DHT22;10399;50.754;3.366;2023-04-24T07:36:50;11.20;99.90
20481;DHT22;10399;50.754;3.366;2023-04-24T07:39:18;11.30;99.90
20481;DHT22;10399;50.754;3.366;2023-04-24T07:41:45;11.60;99.90
20481;DHT22;10399;50.754;3.366;2023-04-24T07:44:12;11.50;99.90
20481;DHT22;10399;50.754;3.366;2023-04-24T07:46:39;11.60;99.90
20481;DHT22;10399;50.754;3.366;2023-04-24T07:49:06;11.60;99.90
20481;DHT22;10399;50.754;3.366;2023-04-24T07:51:40;11.40;99.90
20481;DHT22;10399;50.754;3.366;2023-04-24T07:54:08;11.40;99.90
20481;DHT22;10399;50.754;3.366;2023-04-24T07:56:35;11.70;99.90
20481;DHT22;10399;50.754;3.366;2023-04-24T07:59:06;11.90;99.90
20481;DHT22;10399;50.754;3.366;2023-04-24T08:01:33;11.90;99.90
20481;DHT22;10399;50.754;3.366;2023-04-24T08:04:01;11.80;99.90
20481;DHT22;10399;50.754;3.366;2023-04-24T08:06:29;11.70;99.90
20481;DHT22;10399;50.754;3.366;2023-04-24T08:08:57;11.50;99.90
20481;DHT22;10399;50.754;3.366;2023-04-24T08:11:25;11.50;99.90
20481;DHT22;10399;50.754;3.366;2023-04-24T08:13:52;11.50;99.90
20481;DHT22;10399;50.754;3.366;2023-04-24T08:16:22;11.50;99.90
20481;DHT22;10399;50.754;3.366;2023-04-24T08:18:51;11.70;99.90
20481;DHT22;10399;50.754;3.366;2023-04-24T08:21:18;11.80;99.90
20481;DHT22;10399;50.754;3.366;2023-04-24T08:23:45;11.90;99.90
20481;DHT22;10399;50.754;3.366;2023-04-24T08:26:13;12.00;99.90
20481;DHT22;10399;50.754;3.366;2023-04-24T08:28:40;11.90;99.90
20481;DHT22;10399;50.754;3.366;2023-04-24T08:31:07;11.90;99.90
20481;DHT22;10399;50.754;3.366;2023-04-24T08:33:34;11.90;99.90
20481;DHT22;10399;50.754;3.366;2023-04-24T08:36:05;11.80;99.90
20481;DHT22;10399;50.754;3.366;2023-04-24T08:38:33;11.90;99.90
20481;DHT22;10399;50.754;3.366;2023-04-24T08:41:01;11.90;99.90
20481;DHT22;10399;50.754;3.366;2023-04-24T08:43:28;12.00;99.90
20481;DHT22;10399;50.754;3.366;2023-04-24T08:45:56;12.20;99.90
20481;DHT22;10399;50.754;3.366;2023-04-24T08:48:24;12.30;99.90
20481;DHT22;10399;50.754;3.366;2023-04-24T08:50:58;12.50;99.90
20481;DHT22;10399;50.754;3.366;2023-04-24T08:53:26;12.50;99.90
20481;DHT22;10399;50.754;3.366;2023-04-24T08:55:55;12.50;99.90
20481;DHT22;10399;50.754;3.366;2023-04-24T08:58:25;12.30;99.90
20481;DHT22;10399;50.754;3.366;2023-04-24T09:00:57;12.10;99.90
20481;DHT22;10399;50.754;3.366;2023-04-24T09:03:25;12.00;99.90
20481;DHT22;10399;50.754;3.366;2023-04-24T09:05:55;12.00;99.90
20481;DHT22;10399;50.754;3.366;2023-04-24T09:08:24;12.00;99.90
20481;DHT22;10399;50.754;3.366;2023-04-24T09:10:52;11.90;99.90
20481;DHT22;10399;50.754;3.366;2023-04-24T09:13:20;11.70;99.90
20481;DHT22;10399;50.754;3.366;2023-04-24T09:15:47;11.70;99.90
20481;DHT22;10399;50.754;3.366;2023-04-24T09:18:14;11.80;99.90
20481;DHT22;10399;50.754;3.366;2023-04-24T09:21:01;11.80;99.90
20481;DHT22;10399;50.754;3.366;2023-04-24T09:23:30;12.00;99.90
20481;DHT22;10399;50.754;3.366;2023-04-24T09:25:59;12.30;99.90
20481;DHT22;10399;50.754;3.366;2023-04-24T09:28:37;12.40;99.90
20481;DHT22;10399;50.754;3.366;2023-04-24T09:31:13;12.30;99.90
20481;DHT22;10399;50.754;3.366;2023-04-24T09:33:58;12.40;99.90
20481;DHT22;10399;50.754;3.366;2023-04-24T09:36:32;12.30;99.90
20481;DHT22;10399;50.754;3.366;2023-04-24T09:39:01;12.20;99.90
20481;DHT22;10399;50.754;3.366;2023-04-24T09:41:28;12.00;99.90
20481;DHT22;10399;50.754;3.366;2023-04-24T09:43:56;11.90;99.90
20481;DHT22;10399;50.754;3.366;2023-04-24T09:46:30;11.90;99.90
20481;DHT22;10399;50.754;3.366;2023-04-24T09:49:13;12.00;99.90
20481;DHT22;10399;50.754;3.366;2023-04-24T09:51:43;12.20;99.90
20481;DHT22;10399;50.754;3.366;2023-04-24T09:54:15;12.20;99.90
20481;DHT22;10399;50.754;3.366;2023-04-24T09:56:46;12.20;99.90
20481;DHT22;10399;50.754;3.366;2023-04-24T09:59:18;12.20;99.90
20481;DHT22;10399;50.754;3.366;2023-04-24T10:01:45;12.20;99.90
20481;DHT22;10399;50.754;3.366;2023-04-24T10:04:24;12.40;99.90
20481;DHT22;10399;50.754;3.366;2023-04-24T10:06:55;12.30;99.90
20481;DHT22;10399;50.754;3.366;2023-04-24T10:09:25;12.40;99.90
20481;DHT22;10399;50.754;3.366;2023-04-24T10:11:54;12.70;99.90
20481;DHT22;10399;50.754;3.366;2023-04-24T10:14:25;13.00;99.90
20481;DHT22;10399;50.754;3.366;2023-04-24T10:16:55;13.20;99.90
20481;DHT22;10399;50.754;3.366;2023-04-24T10:19:26;13.40;99.90
20481;DHT22;10399;50.754;3.366;2023-04-24T10:21:53;13.40;99.90
20481;DHT22;10399;50.754;3.366;2023-04-24T10:24:22;13.60;99.90
20481;DHT22;10399;50.754;3.366;2023-04-24T10:26:49;13.70;99.90
20481;DHT22;10399;50.754;3.366;2023-04-24T10:29:19;13.70;99.90
20481;DHT22;10399;50.754;3.366;2023-04-24T10:31:48;13.70;99.90
20481;DHT22;10399;50.754;3.366;2023-04-24T10:34:16;13.40;99.90
20481;DHT22;10399;50.754;3.366;2023-04-24T10:36:49;13.50;99.90
20481;DHT22;10399;50.754;3.366;2023-04-24T10:39:18;13.80;99.90
20481;DHT22;10399;50.754;3.366;2023-04-24T10:41:54;14.10;99.90
20481;DHT22;10399;50.754;3.366;2023-04-24T10:44:24;14.40;99.90
20481;DHT22;10399;50.754;3.366;2023-04-24T10:46:55;14.50;99.90
20481;DHT22;10399;50.754;3.366;2023-04-24T10:49:30;15.10;99.90
20481;DHT22;10399;50.754;3.366;2023-04-24T10:52:02;15.50;99.90
20481;DHT22;10399;50.754;3.366;2023-04-24T10:54:41;15.40;99.90
20481;DHT22;10399;50.754;3.366;2023-04-24T10:59:50;15.40;99.90
20481;DHT22;10399;50.754;3.366;2023-04-24T11:02:18;15.50;99.90
20481;DHT22;10399;50.754;3.366;2023-04-24T11:04:46;15.50;99.90
20481;DHT22;10399;50.754;3.366;2023-04-24T11:07:13;15.90;99.90
20481;DHT22;10399;50.754;3.366;2023-04-24T11:09:42;15.90;99.90
20481;DHT22;10399;50.754;3.366;2023-04-24T11:12:11;16.50;99.90
20481;DHT22;10399;50.754;3.366;2023-04-24T11:17:40;16.90;99.90
20481;DHT22;10399;50.754;3.366;2023-04-24T11:20:17;17.20;99.90
20481;DHT22;10399;50.754;3.366;2023-04-24T11:22:54;17.10;99.90
20481;DHT22;10399;50.754;3.366;2023-04-24T11:25:22;17.20;99.90
20481;DHT22;10399;50.754;3.366;2023-04-24T11:27:50;17.30;99.90
20481;DHT22;10399;50.754;3.366;2023-04-24T11:30:19;17.10;99.90
20481;DHT22;10399;50.754;3.366;2023-04-24T11:32:52;16.90;99.90
20481;DHT22;10399;50.754;3.366;2023-04-24T11:35:23;16.70;99.90
20481;DHT22;10399;50.754;3.366;2023-04-24T11:37:55;16.60;99.90
20481;DHT22;10399;50.754;3.366;2023-04-24T11:40:25;17.20;99.90
20481;DHT22;10399;50.754;3.366;2023-04-24T11:42:53;17.30;99.90
20481;DHT22;10399;50.754;3.366;2023-04-24T11:45:28;17.40;99.90
20481;DHT22;10399;50.754;3.366;2023-04-24T11:47:55;17.50;99.90
20481;DHT22;10399;50.754;3.366;2023-04-24T11:50:23;17.90;99.90
20481;DHT22;10399;50.754;3.366;2023-04-24T11:52:52;17.80;99.90
20481;DHT22;10399;50.754;3.366;2023-04-24T11:57:49;18.90;99.90
20481;DHT22;10399;50.754;3.366;2023-04-24T12:00:19;18.80;99.90
20481;DHT22;10399;50.754;3.366;2023-04-24T12:02:47;18.50;99.90
20481;DHT22;10399;50.754;3.366;2023-04-24T12:05:25;18.70;99.90
20481;DHT22;10399;50.754;3.366;2023-04-24T12:07:54;18.60;99.90
20481;DHT22;10399;50.754;3.366;2023-04-24T12:10:26;18.60;99.90
20481;DHT22;10399;50.754;3.366;2023-04-24T12:12:54;18.50;99.90
20481;DHT22;10399;50.754;3.366;2023-04-24T12:15:22;18.60;99.90
20481;DHT22;10399;50.754;3.366;2023-04-24T12:17:53;18.40;99.90
20481;DHT22;10399;50.754;3.366;2023-04-24T12:20:26;18.30;99.90
20481;DHT22;10399;50.754;3.366;2023-04-24T12:22:58;18.00;99.90
20481;DHT22;10399;50.754;3.366;2023-04-24T12:25:27;18.00;99.90
20481;DHT22;10399;50.754;3.366;2023-04-24T12:28:08;18.30;99.90
20481;DHT22;10399;50.754;3.366;2023-04-24T12:30:47;18.50;99.90
20481;DHT22;10399;50.754;3.366;2023-04-24T12:33:21;18.00;99.90
20481;DHT22;10399;50.754;3.366;2023-04-24T12:35:51;17.60;99.90
20481;DHT22;10399;50.754;3.366;2023-04-24T12:38:24;17.60;99.90
20481;DHT22;10399;50.754;3.366;2023-04-24T12:41:09;17.40;99.90
20481;DHT22;10399;50.754;3.366;2023-04-24T12:43:36;17.10;99.90
20481;DHT22;10399;50.754;3.366;2023-04-24T12:46:04;17.00;99.90
20481;DHT22;10399;50.754;3.366;2023-04-24T12:48:31;16.90;99.90
20481;DHT22;10399;50.754;3.366;2023-04-24T12:50:59;16.80;99.90
20481;DHT22;10399;50.754;3.366;2023-04-24T12:53:29;16.80;99.90
20481;DHT22;10399;50.754;3.366;2023-04-24T12:55:57;16.90;99.90
20481;DHT22;10399;50.754;3.366;2023-04-24T12:58:25;17.10;99.90
20481;DHT22;10399;50.754;3.366;2023-04-24T13:00:52;17.30;99.90
20481;DHT22;10399;50.754;3.366;2023-04-24T13:03:19;17.10;99.90
20481;DHT22;10399;50.754;3.366;2023-04-24T13:05:47;16.60;99.90
20481;DHT22;10399;50.754;3.366;2023-04-24T13:08:15;16.10;99.90
20481;DHT22;10399;50.754;3.366;2023-04-24T13:10:42;16.00;99.90
20481;DHT22;10399;50.754;3.366;2023-04-24T13:13:09;16.00;99.90
20481;DHT22;10399;50.754;3.366;2023-04-24T13:15:36;16.10;99.90
20481;DHT22;10399;50.754;3.366;2023-04-24T13:18:03;16.00;99.90
20481;DHT22;10399;50.754;3.366;2023-04-24T13:20:31;15.90;99.90
20481;DHT22;10399;50.754;3.366;2023-04-24T13:22:58;15.60;99.90
20481;DHT22;10399;50.754;3.366;2023-04-24T13:25:25;15.70;99.90
20481;DHT22;10399;50.754;3.366;2023-04-24T13:27:53;15.50;99.90
20481;DHT22;10399;50.754;3.366;2023-04-24T13:30:20;15.50;99.90
20481;DHT22;10399;50.754;3.366;2023-04-24T13:32:47;15.30;99.90
20481;DHT22;10399;50.754;3.366;2023-04-24T13:35:14;15.40;99.90
20481;DHT22;10399;50.754;3.366;2023-04-24T13:37:41;15.30;99.90
20481;DHT22;10399;50.754;3.366;2023-04-24T13:40:09;15.30;99.90
20481;DHT22;10399;50.754;3.366;2023-04-24T13:42:36;15.30;99.90
20481;DHT22;10399;50.754;3.366;2023-04-24T13:45:03;15.30;99.90
20481;DHT22;10399;50.754;3.366;2023-04-24T13:47:50;15.30;99.90
20481;DHT22;10399;50.754;3.366;2023-04-24T13:50:18;15.20;99.90
20481;DHT22;10399;50.754;3.366;2023-04-24T13:52:45;15.10;99.90
20481;DHT22;10399;50.754;3.366;2023-04-24T13:55:12;15.30;99.90
20481;DHT22;10399;50.754;3.366;2023-04-24T13:57:39;15.40;99.90
20481;DHT22;10399;50.754;3.366;2023-04-24T14:00:07;15.50;99.90
20481;DHT22;10399;50.754;3.366;2023-04-24T14:02:37;15.60;99.90
20481;DHT22;10399;50.754;3.366;2023-04-24T14:05:04;15.80;99.90
20481;DHT22;10399;50.754;3.366;2023-04-24T14:07:32;15.90;99.90
20481;DHT22;10399;50.754;3.366;2023-04-24T14:09:59;15.80;99.90
20481;DHT22;10399;50.754;3.366;2023-04-24T14:12:26;15.80;99.90
20481;DHT22;10399;50.754;3.366;2023-04-24T14:14:54;15.70;99.90
20481;DHT22;10399;50.754;3.366;2023-04-24T14:17:21;15.80;99.90
20481;DHT22;10399;50.754;3.366;2023-04-24T14:19:49;15.80;99.90
20481;DHT22;10399;50.754;3.366;2023-04-24T14:22:17;15.70;99.90
20481;DHT22;10399;50.754;3.366;2023-04-24T14:24:44;15.50;99.90
20481;DHT22;10399;50.754;3.366;2023-04-24T14:27:11;15.40;99.90
20481;DHT22;10399;50.754;3.366;2023-04-24T14:29:38;15.40;99.90
20481;DHT22;10399;50.754;3.366;2023-04-24T14:32:05;15.40;99.90
20481;DHT22;10399;50.754;3.366;2023-04-24T14:34:32;15.40;99.90
20481;DHT22;10399;50.754;3.366;2023-04-24T14:36:58;15.30;99.90
20481;DHT22;10399;50.754;3.366;2023-04-24T14:39:25;15.00;99.90
20481;DHT22;10399;50.754;3.366;2023-04-24T14:41:52;15.00;99.90
20481;DHT22;10399;50.754;3.366;2023-04-24T14:44:19;15.10;99.90
20481;DHT22;10399;50.754;3.366;2023-04-24T14:46:47;14.90;99.90
20481;DHT22;10399;50.754;3.366;2023-04-24T14:49:15;14.90;99.90
20481;DHT22;10399;50.754;3.366;2023-04-24T14:51:42;14.80;99.90
20481;DHT22;10399;50.754;3.366;2023-04-24T14:54:09;14.70;99.90
20481;DHT22;10399;50.754;3.366;2023-04-24T14:56:36;14.80;99.90
20481;DHT22;10399;50.754;3.366;2023-04-24T14:59:03;14.80;99.90
20481;DHT22;10399;50.754;3.366;2023-04-24T15:01:30;14.80;99.90
20481;DHT22;10399;50.754;3.366;2023-04-24T15:03:57;14.80;99.90
20481;DHT22;10399;50.754;3.366;2023-04-24T15:06:25;14.60;99.90
20481;DHT22;10399;50.754;3.366;2023-04-24T15:08:52;14.60;99.90
20481;DHT22;10399;50.754;3.366;2023-04-24T15:11:19;14.50;99.90
20481;DHT22;10399;50.754;3.366;2023-04-24T15:13:46;14.60;99.90
20481;DHT22;10399;50.754;3.366;2023-04-24T15:16:14;14.80;99.90
20481;DHT22;10399;50.754;3.366;2023-04-24T15:18:41;14.90;99.90
20481;DHT22;10399;50.754;3.366;2023-04-24T15:21:08;14.80;99.90
20481;DHT22;10399;50.754;3.366;2023-04-24T15:23:35;14.90;99.90
20481;DHT22;10399;50.754;3.366;2023-04-24T15:26:02;15.00;99.90
20481;DHT22;10399;50.754;3.366;2023-04-24T15:28:29;15.30;99.90
20481;DHT22;10399;50.754;3.366;2023-04-24T15:30:56;15.60;99.90
20481;DHT22;10399;50.754;3.366;2023-04-24T15:33:24;15.90;99.90
20481;DHT22;10399;50.754;3.366;2023-04-24T15:35:52;16.30;99.90
20481;DHT22;10399;50.754;3.366;2023-04-24T15:38:19;16.30;99.90
20481;DHT22;10399;50.754;3.366;2023-04-24T15:40:46;15.90;99.90
20481;DHT22;10399;50.754;3.366;2023-04-24T15:43:18;15.80;99.90
20481;DHT22;10399;50.754;3.366;2023-04-24T15:45:45;15.90;99.90
20481;DHT22;10399;50.754;3.366;2023-04-24T15:48:12;15.70;99.90